Time;durP1;ratioP1;P1;durP2;ratioP2;P2;SDS_P1;SDS_P2;PMS_P1;PMS_P2;Temp;Humidity;BMP_temperature;BMP_pressure;BME280_temperature;BME280_humidity;BME280_pressure;Samples;Min_cycle;Max_cycle;Signal;HPM_P1;HPM_P2
2022/06/11 00:01:33;;;;;;;10.00;2.75;;;17.60;99.90;;;;;;4979530;28;20415;-71
2022/06/11 00:04:06;;;;;;;9.35;2.90;;;17.60;99.90;;;;;;4977083;28;152324;-71
2022/06/11 00:06:35;;;;;;;11.15;2.80;;;17.50;99.90;;;;;;4961912;28;106953;-70
2022/06/11 00:09:03;;;;;;;10.40;2.92;;;17.50;99.90;;;;;;4973449;28;210943;-71
2022/06/11 00:11:29;;;;;;;11.38;2.85;;;17.40;99.90;;;;;;4971559;28;20044;-72
2022/06/11 00:13:55;;;;;;;9.40;2.70;;;17.40;99.90;;;;;;4974747;28;216507;-71
2022/06/11 00:16:24;;;;;;;11.82;2.60;;;17.40;99.90;;;;;;5017626;28;75904;-72
2022/06/11 00:18:54;;;;;;;12.20;2.90;;;17.40;99.90;;;;;;4975254;28;212312;-71
2022/06/11 00:21:21;;;;;;;10.65;2.50;;;17.30;99.90;;;;;;5004166;28;206909;-73
2022/06/11 00:23:47;;;;;;;9.57;2.55;;;17.30;99.90;;;;;;4971585;28;212292;-72
2022/06/11 00:26:14;;;;;;;11.10;2.58;;;17.20;99.90;;;;;;4980587;28;24677;-71
2022/06/11 00:28:40;;;;;;;12.73;2.67;;;17.20;99.90;;;;;;4975280;28;218847;-71
2022/06/11 00:31:07;;;;;;;11.90;2.90;;;17.10;99.90;;;;;;5006867;28;86273;-72
2022/06/11 00:33:36;;;;;;;10.33;2.47;;;17.00;99.90;;;;;;4961003;28;212926;-72
2022/06/11 00:36:04;;;;;;;10.25;2.22;;;17.00;99.90;;;;;;4999191;28;256238;-71
2022/06/11 00:38:30;;;;;;;13.95;2.63;;;16.90;99.90;;;;;;4984229;28;212903;-70
2022/06/11 00:40:56;;;;;;;11.50;2.22;;;16.90;99.90;;;;;;4993293;28;43936;-71
2022/06/11 00:43:25;;;;;;;9.10;2.15;;;16.80;99.90;;;;;;5021886;28;20368;-70
2022/06/11 00:46:23;;;;;;;10.77;2.10;;;16.70;99.90;;;;;;4955605;28;206549;-70
2022/06/11 00:48:49;;;;;;;12.93;2.25;;;16.70;99.90;;;;;;4931936;28;205374;-71
2022/06/11 00:51:20;;;;;;;10.57;2.30;;;16.60;99.90;;;;;;4956662;28;20047;-71
2022/06/11 00:53:52;;;;;;;9.20;2.10;;;16.60;99.90;;;;;;4938556;28;146715;-71
2022/06/11 00:56:23;;;;;;;8.40;1.70;;;16.50;99.90;;;;;;4953723;28;20051;-71
2022/06/11 00:58:53;;;;;;;15.55;2.50;;;16.40;99.90;;;;;;4921218;28;206365;-70
2022/06/11 01:01:21;;;;;;;11.07;2.28;;;16.40;99.90;;;;;;4949610;28;188753;-71
2022/06/11 01:03:48;;;;;;;11.20;2.25;;;16.40;99.90;;;;;;4908052;28;208914;-70
2022/06/11 01:06:33;;;;;;;13.23;2.20;;;16.30;99.90;;;;;;4938489;28;147745;-70
2022/06/11 01:09:19;;;;;;;9.32;2.10;;;16.30;99.90;;;;;;4913362;28;207644;-70
2022/06/11 01:11:54;;;;;;;14.77;2.70;;;16.20;99.90;;;;;;4928267;28;20057;-71
2022/06/11 01:14:20;;;;;;;11.20;2.35;;;16.20;99.90;;;;;;4916319;28;245357;-71
2022/06/11 01:17:19;;;;;;;10.88;2.20;;;16.20;99.90;;;;;;4966112;28;20061;-71
2022/06/11 01:20:00;;;;;;;9.85;2.10;;;16.10;99.90;;;;;;4857805;28;209237;-71
2022/06/11 01:22:43;;;;;;;11.60;2.40;;;16.00;99.90;;;;;;4903807;29;20059;-71
2022/06/11 01:25:32;;;;;;;9.93;2.10;;;15.90;99.90;;;;;;4852673;29;206600;-71
2022/06/11 01:28:13;;;;;;;16.70;2.42;;;15.90;99.90;;;;;;4940757;28;20042;-71
2022/06/11 01:30:49;;;;;;;11.13;2.30;;;15.80;99.90;;;;;;4876375;28;223148;-71
2022/06/11 01:33:22;;;;;;;11.07;2.33;;;15.80;99.90;;;;;;4942355;28;20082;-71
2022/06/11 01:36:04;;;;;;;12.20;2.10;;;15.70;99.90;;;;;;4864113;28;226350;-71
2022/06/11 01:38:59;;;;;;;9.33;2.00;;;15.70;99.90;;;;;;4912823;28;215570;-71
2022/06/11 01:41:41;;;;;;;12.65;2.38;;;15.60;99.90;;;;;;4909037;28;239619;-71
2022/06/11 01:44:13;;;;;;;14.27;2.45;;;15.60;99.90;;;;;;4893321;28;213150;-71
2022/06/11 01:46:44;;;;;;;10.15;2.20;;;15.50;99.90;;;;;;4942116;28;20257;-70
2022/06/11 01:49:25;;;;;;;13.93;2.70;;;15.50;99.90;;;;;;4883997;28;216979;-70
2022/06/11 01:51:56;;;;;;;9.70;2.25;;;15.50;99.90;;;;;;4957344;28;20065;-71
2022/06/11 01:54:28;;;;;;;11.20;2.30;;;15.50;99.90;;;;;;4886997;28;207420;-70
2022/06/11 01:56:56;;;;;;;12.63;2.55;;;15.50;99.90;;;;;;5023473;28;20187;-71
2022/06/11 01:59:50;;;;;;;11.43;2.67;;;15.50;99.90;;;;;;4949898;28;254785;-71
2022/06/11 02:02:43;;;;;;;12.63;2.83;;;15.60;99.90;;;;;;5010303;28;20064;-71
2022/06/11 02:05:42;;;;;;;12.27;2.92;;;15.60;99.90;;;;;;4947978;28;239288;-71
2022/06/11 02:08:19;;;;;;;12.07;2.70;;;15.50;99.90;;;;;;5030574;28;20050;-71
2022/06/11 02:11:01;;;;;;;12.88;3.33;;;15.50;99.90;;;;;;4959623;28;213829;-72
2022/06/11 02:13:37;;;;;;;9.93;3.20;;;15.40;99.90;;;;;;5018469;28;212176;-70
2022/06/11 02:16:26;;;;;;;14.55;3.20;;;15.40;99.90;;;;;;4986472;28;212620;-71
2022/06/11 02:18:54;;;;;;;11.98;3.35;;;15.40;99.90;;;;;;4971031;28;212392;-71
2022/06/11 02:21:28;;;;;;;14.45;3.47;;;15.40;99.90;;;;;;5008521;28;161274;-71
2022/06/11 02:24:02;;;;;;;13.07;3.30;;;15.30;99.90;;;;;;4973316;28;205320;-71
2022/06/11 02:26:32;;;;;;;11.90;3.30;;;15.30;99.90;;;;;;4999515;28;20056;-71
2022/06/11 02:28:59;;;;;;;14.05;3.20;;;15.30;99.90;;;;;;4969358;28;222365;-71
2022/06/11 02:31:30;;;;;;;12.48;3.15;;;15.30;99.90;;;;;;4996229;28;105618;-70
2022/06/11 02:34:00;;;;;;;15.05;3.60;;;15.30;99.90;;;;;;4978928;28;209704;-70
2022/06/11 02:36:30;;;;;;;14.75;3.67;;;15.30;99.90;;;;;;4992105;28;173734;-70
2022/06/11 02:38:59;;;;;;;11.90;3.78;;;15.30;99.90;;;;;;4980248;28;210836;-71
2022/06/11 02:41:29;;;;;;;12.70;3.47;;;15.30;99.90;;;;;;5005221;28;145502;-72
2022/06/11 02:43:56;;;;;;;11.27;3.37;;;15.20;99.90;;;;;;4973911;28;206837;-71
2022/06/11 02:49:21;;;;;;;14.50;5.10;;;15.20;99.90;;;;;;4912552;28;206926;-70
2022/06/11 02:51:49;;;;;;;14.05;5.20;;;15.10;99.90;;;;;;4974831;28;20069;-70
2022/06/11 02:54:16;;;;;;;12.63;5.00;;;15.10;99.90;;;;;;4915104;28;209493;-70
2022/06/11 02:56:43;;;;;;;15.27;5.70;;;15.10;99.90;;;;;;4965860;28;20046;-71
2022/06/11 02:59:10;;;;;;;18.27;6.03;;;15.10;99.90;;;;;;4915759;28;206938;-70
2022/06/11 03:01:36;;;;;;;17.30;6.60;;;15.10;99.90;;;;;;4935683;28;20089;-70
2022/06/11 03:04:03;;;;;;;16.45;5.68;;;15.10;99.90;;;;;;4927717;28;222540;-71
2022/06/11 03:06:30;;;;;;;16.38;6.10;;;15.10;99.90;;;;;;4946773;28;50413;-71
2022/06/11 03:08:57;;;;;;;15.38;5.85;;;15.10;99.90;;;;;;4916649;28;206135;-71
2022/06/11 03:11:24;;;;;;;15.38;6.30;;;15.10;99.90;;;;;;4941578;28;162255;-71
2022/06/11 03:13:50;;;;;;;18.17;6.25;;;15.10;99.90;;;;;;4930781;28;211181;-71
2022/06/11 03:16:17;;;;;;;16.17;5.95;;;15.10;99.90;;;;;;4959714;28;20061;-71
2022/06/11 03:18:43;;;;;;;20.30;5.70;;;15.10;99.90;;;;;;4936073;28;209063;-72
2022/06/11 03:21:09;;;;;;;17.48;5.68;;;15.10;99.90;;;;;;4938667;28;105771;-72
2022/06/11 03:23:36;;;;;;;16.00;5.40;;;15.10;99.90;;;;;;4917246;28;206517;-71
2022/06/11 03:26:06;;;;;;;19.25;5.80;;;15.10;99.90;;;;;;4983639;28;84477;-71
2022/06/11 03:28:34;;;;;;;18.35;5.45;;;15.10;99.90;;;;;;4979010;28;209439;-72
2022/06/11 03:31:03;;;;;;;18.40;5.30;;;15.10;99.90;;;;;;5005844;28;216548;-72
2022/06/11 03:33:29;;;;;;;15.27;5.20;;;15.00;99.90;;;;;;4993802;28;224865;-71
2022/06/11 03:35:55;;;;;;;17.58;5.65;;;15.00;99.90;;;;;;4985818;28;236095;-71
2022/06/11 03:38:22;;;;;;;16.33;5.63;;;15.00;99.90;;;;;;5023126;28;20438;-70
2022/06/11 03:40:49;;;;;;;18.38;5.20;;;15.00;99.90;;;;;;4971699;28;206738;-71
2022/06/11 03:43:16;;;;;;;19.00;5.55;;;15.00;99.90;;;;;;5024944;28;20064;-71
2022/06/11 03:45:43;;;;;;;18.92;6.15;;;15.00;99.90;;;;;;4967254;28;206151;-71
2022/06/11 03:48:09;;;;;;;21.45;5.70;;;15.00;99.90;;;;;;5030442;28;20410;-72
2022/06/11 03:50:39;;;;;;;18.08;6.07;;;15.10;99.90;;;;;;4987460;28;211801;-71
2022/06/11 03:53:08;;;;;;;16.98;5.40;;;15.10;99.90;;;;;;5037520;28;20065;-70
2022/06/11 03:55:35;;;;;;;18.55;6.13;;;15.10;99.90;;;;;;4963164;28;213556;-70
2022/06/11 03:58:02;;;;;;;18.08;5.93;;;15.10;99.90;;;;;;5042604;28;20041;-72
2022/06/11 04:03:16;;;;;;;24.05;7.07;;;15.00;99.90;;;;;;5024516;28;20076;-72
2022/06/11 04:05:44;;;;;;;19.67;6.50;;;15.10;99.90;;;;;;4944935;28;251852;-71
2022/06/11 04:08:11;;;;;;;17.80;6.22;;;15.00;99.90;;;;;;5024310;28;20045;-72
2022/06/11 04:10:38;;;;;;;18.27;7.30;;;15.00;99.90;;;;;;4978990;28;212994;-71
2022/06/11 04:13:05;;;;;;;18.38;7.07;;;15.00;99.90;;;;;;5003892;28;20072;-70
2022/06/11 04:15:31;;;;;;;18.35;7.22;;;15.00;99.90;;;;;;4975541;28;216307;-72
2022/06/11 04:17:59;;;;;;;18.33;8.15;;;15.00;99.90;;;;;;5029476;28;20068;-71
2022/06/11 04:20:25;;;;;;;22.33;9.45;;;15.00;99.90;;;;;;4963828;28;238849;-72
2022/06/11 04:22:52;;;;;;;19.08;8.65;;;15.10;99.90;;;;;;5033449;28;20601;-72
2022/06/11 04:25:18;;;;;;;17.50;8.70;;;15.10;99.90;;;;;;4946835;28;257696;-72
2022/06/11 04:27:44;;;;;;;16.73;8.60;;;15.10;99.90;;;;;;5019506;28;20057;-72
2022/06/11 04:30:14;;;;;;;19.85;9.38;;;15.20;99.90;;;;;;4962084;28;209371;-73
2022/06/11 04:32:41;;;;;;;19.08;8.40;;;15.20;99.90;;;;;;5032322;28;20455;-72
2022/06/11 04:35:08;;;;;;;21.23;8.68;;;15.20;99.90;;;;;;4972116;28;211760;-71
2022/06/11 04:37:34;;;;;;;19.63;7.88;;;15.20;99.90;;;;;;5028490;28;20065;-72
2022/06/11 04:40:03;;;;;;;22.27;8.57;;;15.20;99.90;;;;;;4967719;28;253906;-70
2022/06/11 04:42:29;;;;;;;17.95;8.25;;;15.20;99.90;;;;;;5021142;28;20056;-71
2022/06/11 04:44:56;;;;;;;19.80;8.63;;;15.20;99.90;;;;;;4969115;28;214322;-71
2022/06/11 04:47:25;;;;;;;19.88;9.00;;;15.30;99.90;;;;;;5019577;28;20056;-71
2022/06/11 04:49:55;;;;;;;18.80;8.00;;;15.30;99.90;;;;;;4958769;28;207320;-71
2022/06/11 04:52:22;;;;;;;19.02;8.02;;;15.30;99.90;;;;;;5002454;28;20426;-73
2022/06/11 04:54:48;;;;;;;20.65;7.72;;;15.40;99.90;;;;;;4960252;28;219473;-73
2022/06/11 04:57:15;;;;;;;21.77;8.40;;;15.30;99.90;;;;;;5019374;28;20503;-70
2022/06/11 04:59:41;;;;;;;21.73;7.97;;;15.40;99.90;;;;;;4975424;28;213511;-73
2022/06/11 05:02:17;;;;;;;20.65;8.05;;;15.40;99.90;;;;;;5017864;28;20068;-71
2022/06/11 05:04:43;;;;;;;20.98;8.13;;;15.50;99.90;;;;;;4924573;28;179137;-73
2022/06/11 05:07:10;;;;;;;20.63;6.95;;;15.50;99.90;;;;;;5015271;28;20048;-72
2022/06/11 05:09:36;;;;;;;20.48;7.43;;;15.50;99.90;;;;;;4961540;28;207086;-73
2022/06/11 05:12:03;;;;;;;17.83;6.65;;;15.60;99.90;;;;;;5027257;28;20049;-72
2022/06/11 05:14:29;;;;;;;16.98;6.22;;;15.60;99.90;;;;;;4962776;28;213516;-72
2022/06/11 05:16:58;;;;;;;16.10;5.97;;;15.60;99.90;;;;;;5005613;28;20049;-73
2022/06/11 05:19:24;;;;;;;22.95;5.97;;;15.70;99.90;;;;;;4960290;28;213787;-71
2022/06/11 05:21:51;;;;;;;22.42;5.97;;;15.70;99.90;;;;;;5026384;28;20140;-72
2022/06/11 05:24:19;;;;;;;20.80;5.60;;;15.80;99.90;;;;;;4956995;28;199205;-73
2022/06/11 05:26:55;;;;;;;18.17;5.57;;;15.80;99.90;;;;;;5023559;28;20072;-72
2022/06/11 05:29:48;;;;;;;20.80;5.45;;;15.90;99.90;;;;;;4966074;28;216573;-74
2022/06/11 05:32:16;;;;;;;21.75;5.05;;;15.90;99.90;;;;;;5008282;28;20080;-74
2022/06/11 05:34:44;;;;;;;18.25;4.63;;;16.00;99.90;;;;;;4973596;28;233628;-75
2022/06/11 05:37:11;;;;;;;22.13;4.55;;;16.00;99.90;;;;;;5035113;28;20418;-73
2022/06/11 05:39:38;;;;;;;22.38;4.55;;;16.10;99.90;;;;;;4923038;28;210695;-73
2022/06/11 05:42:05;;;;;;;22.20;4.60;;;16.20;99.90;;;;;;4992948;28;20538;-72
2022/06/11 05:44:31;;;;;;;21.65;4.43;;;16.30;99.90;;;;;;4962147;28;214911;-73
2022/06/11 05:46:57;;;;;;;18.08;4.10;;;16.40;99.90;;;;;;5023243;28;20061;-72
2022/06/11 05:49:28;;;;;;;22.70;4.40;;;16.40;99.90;;;;;;4959185;28;278589;-73
2022/06/11 05:52:01;;;;;;;18.95;4.35;;;16.50;99.90;;;;;;5000422;28;20054;-73
2022/06/11 05:54:32;;;;;;;18.67;4.28;;;16.40;99.90;;;;;;4972881;28;196727;-72
2022/06/11 05:56:59;;;;;;;24.80;4.90;;;16.50;99.90;;;;;;4997439;28;20085;-73
2022/06/11 05:59:32;;;;;;;22.05;4.63;;;16.70;99.90;;;;;;4931429;28;237472;-72
2022/06/11 06:02:00;;;;;;;20.55;4.40;;;16.80;99.90;;;;;;5024496;28;20475;-74
2022/06/11 06:04:27;;;;;;;21.50;4.25;;;16.90;99.90;;;;;;4943477;28;207453;-73
2022/06/11 06:06:53;;;;;;;24.65;4.32;;;17.10;99.90;;;;;;5007463;28;20132;-73
2022/06/11 06:09:19;;;;;;;24.73;4.28;;;17.00;99.90;;;;;;4957182;28;231137;-72
2022/06/11 06:11:45;;;;;;;20.13;4.43;;;17.00;99.90;;;;;;5025129;28;20049;-73
2022/06/11 06:14:11;;;;;;;22.02;3.83;;;17.00;99.90;;;;;;4961321;28;211619;-73
2022/06/11 06:16:37;;;;;;;26.50;4.50;;;17.30;99.90;;;;;;5015173;28;20060;-73
2022/06/11 06:19:03;;;;;;;23.23;4.78;;;17.30;99.90;;;;;;4966917;28;212740;-71
2022/06/11 06:21:32;;;;;;;25.65;4.68;;;17.40;99.90;;;;;;5007656;28;20422;-73
2022/06/11 06:23:59;;;;;;;21.90;4.78;;;17.50;99.90;;;;;;4960091;28;209920;-73
2022/06/11 06:26:25;;;;;;;25.33;4.72;;;17.70;99.90;;;;;;4991800;28;186859;-72
2022/06/11 06:28:51;;;;;;;22.15;4.75;;;17.70;99.90;;;;;;4983798;28;207043;-72
2022/06/11 06:31:18;;;;;;;26.23;4.60;;;17.70;99.90;;;;;;5018341;28;80476;-73
2022/06/11 06:33:58;;;;;;;26.23;4.43;;;17.80;99.90;;;;;;4938373;28;1310135;-75
2022/06/11 06:36:25;;;;;;;27.65;5.13;;;18.00;99.90;;;;;;4987538;28;206902;-72
2022/06/11 06:38:52;;;;;;;20.92;4.53;;;18.00;99.90;;;;;;4973682;28;212915;-72
2022/06/11 06:41:19;;;;;;;24.02;4.50;;;18.10;99.90;;;;;;4997352;28;104196;-72
2022/06/11 06:43:45;;;;;;;25.30;5.00;;;18.30;99.90;;;;;;4982545;28;225993;-73
2022/06/11 06:46:12;;;;;;;22.35;4.75;;;18.50;99.90;;;;;;4990533;28;89517;-73
2022/06/11 06:48:38;;;;;;;26.48;5.03;;;18.40;99.90;;;;;;4978137;28;211788;-71
2022/06/11 06:51:05;;;;;;;22.77;4.53;;;18.50;99.90;;;;;;5007052;28;256129;-70
2022/06/11 06:53:32;;;;;;;21.27;4.73;;;18.80;99.90;;;;;;4982760;28;211005;-71
2022/06/11 06:55:58;;;;;;;21.02;4.65;;;18.80;99.90;;;;;;5006586;28;122096;-71
2022/06/11 06:58:24;;;;;;;26.35;5.20;;;18.80;99.90;;;;;;5016099;28;20375;-72
2022/06/11 07:00:51;;;;;;;31.05;5.50;;;19.00;99.90;;;;;;4942459;28;207961;-72
2022/06/11 07:03:17;;;;;;;24.00;5.07;;;19.10;99.90;;;;;;5019041;28;20046;-72
2022/06/11 07:05:44;;;;;;;25.85;5.13;;;19.20;99.90;;;;;;4955179;28;214233;-73
2022/06/11 07:08:13;;;;;;;28.25;4.88;;;19.20;99.90;;;;;;5018324;28;20050;-72
2022/06/11 07:10:45;;;;;;;20.80;4.28;;;19.30;99.90;;;;;;4983353;28;209458;-71
2022/06/11 07:13:11;;;;;;;27.45;5.57;;;19.40;99.90;;;;;;5022793;28;20602;-71
2022/06/11 07:15:37;;;;;;;25.17;5.35;;;19.60;99.90;;;;;;4952350;28;220497;-72
2022/06/11 07:18:13;;;;;;;23.65;5.85;;;19.60;99.90;;;;;;5017425;28;20053;-72
2022/06/11 07:20:41;;;;;;;23.55;5.00;;;19.50;99.90;;;;;;4938760;28;230779;-72
2022/06/11 07:23:12;;;;;;;23.92;5.13;;;19.60;99.90;;;;;;5032676;22;20049;-81
2022/06/11 07:25:41;;;;;;;23.27;4.90;;;19.60;99.90;;;;;;4946119;28;212716;-83
2022/06/11 07:28:14;;;;;;;24.25;5.07;;;19.70;99.90;;;;;;4989097;28;20426;-83
2022/06/11 07:30:44;;;;;;;25.17;4.90;;;19.90;99.90;;;;;;4892049;28;263253;-85
2022/06/11 07:33:17;;;;;;;24.02;4.78;;;20.00;99.90;;;;;;4974092;28;20050;-84
2022/06/11 07:35:44;;;;;;;21.85;4.72;;;20.10;99.90;;;;;;4925630;28;207647;-83
2022/06/11 07:38:12;;;;;;;25.88;5.20;;;20.30;99.90;;;;;;5007140;28;20206;-84
2022/06/11 07:40:39;;;;;;;24.38;4.63;;;20.40;99.90;;;;;;4918544;28;204708;-84
2022/06/11 07:43:09;;;;;;;21.77;4.80;;;20.50;99.90;;;;;;5006937;28;20391;-85
2022/06/11 07:45:40;;;;;;;20.33;4.63;;;20.70;99.90;;;;;;4925197;28;205133;-86
2022/06/11 07:48:07;;;;;;;23.45;4.90;;;20.70;99.90;;;;;;4986913;28;20042;-84
2022/06/11 07:50:43;;;;;;;20.98;4.75;;;20.70;99.90;;;;;;4918810;28;202000;-83
2022/06/11 07:53:10;;;;;;;25.75;5.18;;;20.80;99.90;;;;;;4997782;28;20371;-77
2022/06/11 07:55:38;;;;;;;27.40;5.15;;;20.80;99.90;;;;;;4904261;28;212772;-82
2022/06/11 07:58:08;;;;;;;26.75;5.30;;;20.70;99.90;;;;;;4990101;28;20054;-83
2022/06/11 08:00:41;;;;;;;22.08;4.63;;;20.90;99.90;;;;;;4911139;28;209012;-82
2022/06/11 08:03:38;;;;;;;;;;;;;;;;;;;;;
2022/06/11 08:06:20;;;;;;;25.50;4.70;;;21.20;99.90;;;;;;4911538;28;200798;-82
2022/06/11 08:08:49;;;;;;;24.23;4.70;;;21.00;99.90;;;;;;4947177;28;271483;-83
2022/06/11 08:11:15;;;;;;;22.50;4.57;;;20.90;99.90;;;;;;4961087;28;243398;-82
2022/06/11 08:13:41;;;;;;;21.65;5.07;;;20.90;99.90;;;;;;4934758;28;232007;-84
2022/06/11 08:16:10;;;;;;;18.38;4.15;;;20.90;99.90;;;;;;4948309;28;90552;-82
2022/06/11 08:18:37;;;;;;;21.20;4.20;;;20.80;99.90;;;;;;4937699;28;216906;-83
2022/06/11 08:21:05;;;;;;;23.48;5.03;;;21.10;99.90;;;;;;4912644;28;35995;-83
2022/06/11 08:23:31;;;;;;;22.60;4.80;;;21.40;99.90;;;;;;4959797;28;217460;-83
2022/06/11 08:25:58;;;;;;;24.50;4.75;;;21.70;99.90;;;;;;4961542;28;271167;-83
2022/06/11 08:28:29;;;;;;;26.52;4.97;;;22.00;99.90;;;;;;5021348;28;20058;-83
2022/06/11 08:30:55;;;;;;;23.35;4.72;;;21.90;98.00;;;;;;4886728;28;215470;-83
2022/06/11 08:33:22;;;;;;;21.50;4.47;;;21.70;99.20;;;;;;4988393;28;20053;-83
2022/06/11 08:35:48;;;;;;;23.25;4.95;;;21.50;99.90;;;;;;4923761;28;230348;-84
2022/06/11 08:38:14;;;;;;;22.30;4.55;;;21.40;99.90;;;;;;4986495;28;20058;-84
2022/06/11 08:40:43;;;;;;;19.92;4.13;;;21.60;99.50;;;;;;4923785;28;204701;-79
2022/06/11 08:43:28;;;;;;;42.63;6.05;;;21.70;99.90;;;;;;5004026;28;20050;-85
2022/06/11 08:46:17;;;;;;;23.63;5.03;;;21.50;98.40;;;;;;4905139;28;242200;-81
2022/06/11 08:49:21;;;;;;;22.33;4.57;;;21.50;99.90;;;;;;4948998;28;205117;-84
2022/06/11 08:52:15;;;;;;;22.13;4.22;;;22.00;99.10;;;;;;4958741;28;20138;-79
2022/06/11 08:54:45;;;;;;;24.08;4.57;;;22.00;98.10;;;;;;4938484;28;211681;-78
2022/06/11 08:57:20;;;;;;;16.70;4.00;;;21.90;98.30;;;;;;4993970;28;20049;-78
2022/06/11 09:00:04;;;;;;;23.00;4.90;;;22.20;97.70;;;;;;4924113;28;223713;-78
2022/06/11 09:02:33;;;;;;;24.35;3.70;;;22.60;98.20;;;;;;4976348;28;20058;-78
2022/06/11 09:05:29;;;;;;;19.85;4.18;;;22.70;97.10;;;;;;4880885;28;209264;-79
2022/06/11 09:08:14;;;;;;;20.60;4.10;;;22.60;94.60;;;;;;4986194;28;20066;-78
2022/06/11 09:11:04;;;;;;;18.35;3.47;;;22.80;90.90;;;;;;4915478;28;205095;-75
2022/06/11 09:13:49;;;;;;;18.65;3.53;;;22.80;89.80;;;;;;4951156;28;221908;-77
2022/06/11 09:16:15;;;;;;;18.70;3.75;;;23.10;90.00;;;;;;4950397;28;120060;-78
2022/06/11 09:18:55;;;;;;;17.60;3.60;;;23.20;87.20;;;;;;4938291;28;233942;-76
2022/06/11 09:21:59;;;;;;;20.97;3.67;;;23.40;83.10;;;;;;4964124;28;156939;-78
2022/06/11 09:24:43;;;;;;;17.35;3.72;;;23.40;77.40;;;;;;4874361;28;202459;-78
2022/06/11 09:27:18;;;;;;;16.25;3.38;;;23.40;81.30;;;;;;4918103;29;20058;-78
2022/06/11 09:30:14;;;;;;;18.65;3.60;;;23.60;79.00;;;;;;4865603;28;212948;-77
2022/06/11 09:32:56;;;;;;;19.10;4.07;;;23.70;75.70;;;;;;4922131;28;20059;-83
2022/06/11 09:36:02;;;;;;;17.25;3.40;;;23.50;79.40;;;;;;4870770;28;199538;-84
2022/06/11 09:38:52;;;;;;;13.82;3.00;;;23.90;72.00;;;;;;4859050;29;172022;-77
2022/06/11 09:41:36;;;;;;;14.15;3.17;;;24.00;69.60;;;;;;4816119;29;252981;-77
2022/06/11 09:44:24;;;;;;;17.80;3.15;;;24.00;71.00;;;;;;4799791;29;178689;-77
2022/06/11 09:47:47;;;;;;;16.00;3.42;;;24.00;67.50;;;;;;4821021;29;20065;-76
2022/06/11 09:50:36;;;;;;;19.40;3.50;;;24.10;65.90;;;;;;4703064;30;214629;-76
2022/06/11 09:53:24;;;;;;;19.48;4.03;;;24.10;70.20;;;;;;4758675;30;20456;-77
2022/06/11 09:55:57;;;;;;;14.60;3.22;;;24.30;69.70;;;;;;4690746;29;205484;-76
2022/06/11 09:58:29;;;;;;;14.52;2.97;;;24.30;62.60;;;;;;4777311;29;20074;-78
2022/06/11 10:01:00;;;;;;;13.77;3.25;;;24.30;64.20;;;;;;4697920;29;241734;-76
2022/06/11 10:03:35;;;;;;;14.63;2.92;;;24.10;62.90;;;;;;4774933;29;60786;-78
2022/06/11 10:06:20;;;;;;;13.40;2.70;;;24.40;59.40;;;;;;4733564;29;245169;-76
2022/06/11 10:08:55;;;;;;;16.67;2.70;;;24.60;55.90;;;;;;4767081;29;209499;-77
2022/06/11 10:11:48;;;;;;;14.05;2.72;;;24.10;55.90;;;;;;4797141;29;135184;-77
2022/06/11 10:14:29;;;;;;;16.13;2.97;;;24.10;57.00;;;;;;4773663;29;204347;-77
2022/06/11 10:17:26;;;;;;;15.32;2.90;;;24.20;58.70;;;;;;4858178;29;20068;-78
2022/06/11 10:20:27;;;;;;;18.33;3.20;;;24.50;60.90;;;;;;4536934;28;9001555;-77
2022/06/11 10:23:02;;;;;;;12.52;2.72;;;24.80;54.90;;;;;;4980034;28;20133;-77
2022/06/11 10:25:52;;;;;;;15.23;3.00;;;24.90;55.20;;;;;;4922338;28;247430;-75
2022/06/11 10:28:38;;;;;;;16.63;3.33;;;24.50;56.70;;;;;;4965712;28;20053;-77
2022/06/11 10:31:08;;;;;;;17.65;3.17;;;24.70;55.50;;;;;;4936136;28;168542;-76
2022/06/11 10:33:55;;;;;;;14.52;3.17;;;24.80;55.60;;;;;;4954604;28;221623;-79
2022/06/11 10:36:47;;;;;;;15.90;3.17;;;24.80;55.40;;;;;;4938009;28;243980;-87
2022/06/11 10:39:26;;;;;;;15.30;2.65;;;25.10;53.70;;;;;;4919970;28;240533;-76
2022/06/11 10:41:58;;;;;;;13.15;2.67;;;25.10;53.80;;;;;;4978536;28;20407;-76
2022/06/11 10:44:35;;;;;;;12.38;2.75;;;24.90;52.40;;;;;;4945567;28;243261;-79
2022/06/11 10:47:10;;;;;;;15.32;3.17;;;25.10;53.70;;;;;;4980959;28;20057;-76
2022/06/11 10:50:28;;;;;;;14.73;3.00;;;24.90;54.40;;;;;;4942028;28;217455;-86
2022/06/11 10:53:21;;;;;;;16.08;3.22;;;24.60;53.20;;;;;;4922589;29;20051;-86
2022/06/11 10:56:22;;;;;;;18.48;3.10;;;24.30;55.10;;;;;;4853104;29;252999;-76
2022/06/11 10:59:13;;;;;;;14.38;3.55;;;24.30;55.50;;;;;;4891350;29;105507;-83
2022/06/11 11:02:24;;;;;;;17.05;3.45;;;24.50;56.30;;;;;;4905544;29;20050;-81
2022/06/11 11:05:42;;;;;;;11.85;2.50;;;24.10;58.30;;;;;;4521924;29;10003024;-88
2022/06/11 11:08:39;;;;;;;16.58;3.63;;;24.00;57.10;;;;;;4828559;29;20045;-85
2022/06/11 11:11:49;;;;;;;16.77;3.72;;;24.40;57.90;;;;;;4436335;29;10002974;-84
2022/06/11 11:14:32;;;;;;;15.60;3.58;;;25.10;58.90;;;;;;4779301;29;346614;-78
2022/06/11 11:17:01;;;;;;;14.40;3.10;;;25.40;58.10;;;;;;4846492;29;20439;-81
2022/06/11 11:19:39;;;;;;;18.10;3.95;;;25.00;57.20;;;;;;4803953;29;206685;-79
2022/06/11 11:22:20;;;;;;;17.33;3.60;;;24.90;55.60;;;;;;4852248;29;20088;-79
2022/06/11 11:24:49;;;;;;;19.38;3.40;;;24.50;57.10;;;;;;4773108;29;206774;-77
2022/06/11 11:27:31;;;;;;;18.30;3.50;;;24.50;59.30;;;;;;4864636;29;20060;-86
2022/06/11 11:30:15;;;;;;;16.13;3.13;;;25.00;55.90;;;;;;4816802;29;215033;-79
2022/06/11 11:32:45;;;;;;;16.50;3.35;;;25.40;58.40;;;;;;4871885;29;20160;-78
2022/06/11 11:35:29;;;;;;;16.15;3.10;;;25.60;54.90;;;;;;4809295;29;229807;-79
2022/06/11 11:38:12;;;;;;;18.83;3.45;;;25.50;55.80;;;;;;4875567;29;20063;-79
2022/06/11 11:40:52;;;;;;;15.68;3.28;;;25.10;54.70;;;;;;4819259;29;228490;-78
2022/06/11 11:43:28;;;;;;;15.52;3.35;;;24.50;55.90;;;;;;4930184;29;20047;-84
2022/06/11 11:45:55;;;;;;;15.55;3.05;;;24.20;56.10;;;;;;4912881;28;211350;-81
2022/06/11 11:48:35;;;;;;;16.00;3.42;;;23.90;56.40;;;;;;4990457;28;20155;-80
2022/06/11 11:51:16;;;;;;;17.23;3.67;;;24.20;57.60;;;;;;4943280;28;237400;-79
2022/06/11 11:53:46;;;;;;;28.42;3.40;;;24.30;57.60;;;;;;4964151;28;214284;-82
2022/06/11 11:56:40;;;;;;;16.92;3.33;;;24.50;57.40;;;;;;4955179;28;121172;-77
2022/06/11 12:00:03;;;;;;;17.67;3.25;;;25.10;58.30;;;;;;4963245;28;209113;-86
2022/06/11 12:02:45;;;;;;;15.63;3.08;;;25.30;53.60;;;;;;4891898;29;20044;-75
2022/06/11 12:05:51;;;;;;;13.18;3.10;;;25.10;54.90;;;;;;4840002;29;186643;-76
2022/06/11 12:08:32;;;;;;;17.85;3.38;;;25.60;53.50;;;;;;4842179;29;20056;-84
2022/06/11 12:11:51;;;;;;;14.88;3.22;;;25.60;52.90;;;;;;4774562;29;256565;-83
2022/06/11 12:14:54;;;;;;;18.23;3.25;;;25.70;55.10;;;;;;4393974;29;10003832;-83
2022/06/11 12:18:24;;;;;;;;;;;;;;;;;;;;;
2022/06/11 12:33:54;;;;;;;;;;;;;;;;;;;;;
2022/06/11 12:36:40;;;;;;;13.43;2.78;;;25.80;52.90;;;;;;4840237;23;233136;-75
2022/06/11 12:39:37;;;;;;;14.82;2.90;;;25.90;52.50;;;;;;4978003;28;224596;-75
2022/06/11 12:42:17;;;;;;;15.63;3.55;;;26.00;53.10;;;;;;5011361;28;20044;-75
2022/06/11 12:45:01;;;;;;;;;;;25.90;50.90;;;;;;5005222;28;205968;-75
2022/06/11 12:47:33;;;;;;;15.82;3.65;;;26.00;51.20;;;;;;5056608;22;19927;-69
2022/06/11 12:50:02;;;;;;;14.45;3.33;;;25.60;52.10;;;;;;4934250;28;211006;-69
2022/06/11 12:53:01;;;;;;;15.75;2.78;;;25.80;52.10;;;;;;4990239;28;20415;-68
2022/06/11 12:55:39;;;;;;;12.82;3.20;;;25.80;50.80;;;;;;4943811;28;206339;-69
2022/06/11 12:58:24;;;;;;;14.07;3.00;;;26.30;50.60;;;;;;5008849;28;20385;-70
2022/06/11 13:00:56;;;;;;;13.55;3.17;;;26.30;52.10;;;;;;4943615;28;250089;-69
2022/06/11 13:04:15;;;;;;;12.88;3.00;;;26.60;50.00;;;;;;4983058;28;20119;-69
2022/06/11 13:06:56;;;;;;;12.95;2.75;;;26.70;50.80;;;;;;4899504;28;20444;-69
2022/06/11 13:09:52;;;;;;;14.52;3.22;;;26.90;50.20;;;;;;4895783;28;209699;-69
2022/06/11 13:12:45;;;;;;;15.63;3.45;;;26.90;51.20;;;;;;4951957;28;20051;-69
2022/06/11 13:15:38;;;;;;;14.30;3.10;;;27.20;49.90;;;;;;4932095;28;207219;-69
2022/06/11 13:18:15;;;;;;;14.73;3.30;;;27.30;51.50;;;;;;4968774;28;20058;-69
2022/06/11 13:20:56;;;;;;;16.23;3.63;;;27.30;51.10;;;;;;4901308;28;182385;-68
2022/06/11 13:23:43;;;;;;;15.05;3.28;;;26.70;50.00;;;;;;4968906;28;20154;-68
2022/06/11 13:26:20;;;;;;;14.13;3.10;;;26.40;51.40;;;;;;4917768;28;146810;-68
2022/06/11 13:29:09;;;;;;;14.38;3.10;;;26.70;50.30;;;;;;4926425;28;211249;-66
2022/06/11 13:31:51;;;;;;;11.75;2.47;;;26.50;50.00;;;;;;4960970;28;20532;-69
2022/06/11 13:34:50;;;;;;;15.27;3.40;;;26.80;50.00;;;;;;4901798;28;252449;-68
2022/06/11 13:37:47;;;;;;;15.63;3.47;;;27.10;49.50;;;;;;4976907;28;20058;-69